Pagrindinis puslapis
METAR-TAF:

METAR-TAF

Oro uostai :

Kota Bharu, Malaizija

platuma: 06-10N, ilguma: 102-17E, Aukštis: 5 m

Dabartinis oras

Ataskaita buvo paskelbta 42 minutes, ne 04:00 UTC
Vėjas 4 kt nuo kintamojo kryptimis
Temperatūra 34°C
Drėgmė 63%
Slėgis 1012 hPa
Matomumas 10 km arba daugiau
Išsisklaidę debesys ne aukštis 1800 ft

METAR: WMKC 310400Z VRB04KT 9999 SCT018 34/26 Q1012

Laikas: 12:42 (04:42 UTC)

Prognozė

Ataskaita buvo paskelbta 5 valandos ir 42 minutes, ne 23:00 UTC
Prognozė galioja nuo 31 metu 00 UTC su 01 metu 00 UTC
Vėjas 3 kt nuo kintamojo kryptimis
Matomumas 10 km arba daugiau
Mažai debesys ne aukštis 1800 ft
Tapsmas
nuo 31 metu 04 UTC su 31 metu 06 UTC
Vėjas 7 kt iš Rytų/Šiaurės Rytų
Tapsmas
nuo 31 metu 12 UTC su 31 metu 13 UTC
Vėjas 3 kt nuo kintamojo kryptimis
Mažai debesys ne aukštis 2000 ft

TAF: WMKC 302300Z 3100/0100 VRB03KT 9999 FEW018 BECMG 3104/3106 06007KT BECMG 3112/3113 VRB03KT FEW020

Orai ataskaitas ir orų prognozės (METAR, TAF).

turimą stotys yra geltonos ir raudonos taškus žemėlapyje.

Perkelti pele per norėdami pamatyti stoties vardą.

Tada spustelėkite, norėdami matyti oro stebėjimo ir prognozės.

Norėdami pakeisti žemėlapį: spustelėkite ant žalios mygtukų su juodo kryžiaus žemyn,; žalią mygtuką su brūkšneliu, jei norite nutolinti; arba žalių rodyklių gretimoms žemėlapius.


METAR-TAF: